sensor_id;sensor_type;location;lat;lon;timestamp;P1;durP1;ratioP1;P2;durP2;ratioP2
43435;SDS011;36399;51.444;-2.018;2023-02-22T00:01:10;65.90;;;30.50;;
43435;SDS011;36399;51.444;-2.018;2023-02-22T00:03:57;59.03;;;25.90;;
43435;SDS011;36399;51.444;-2.018;2023-02-22T00:06:23;61.60;;;28.20;;
43435;SDS011;36399;51.444;-2.018;2023-02-22T00:08:50;66.10;;;29.70;;
43435;SDS011;36399;51.444;-2.018;2023-02-22T00:11:17;63.93;;;28.07;;
43435;SDS011;36399;51.444;-2.018;2023-02-22T00:13:45;60.93;;;28.23;;
43435;SDS011;36399;51.444;-2.018;2023-02-22T00:16:15;64.47;;;31.63;;
43435;SDS011;36399;51.444;-2.018;2023-02-22T00:18:44;57.43;;;28.50;;
43435;SDS011;36399;51.444;-2.018;2023-02-22T00:21:10;68.70;;;30.60;;
43435;SDS011;36399;51.444;-2.018;2023-02-22T00:23:39;65.03;;;30.37;;
43435;SDS011;36399;51.444;-2.018;2023-02-22T00:26:11;67.25;;;28.30;;
43435;SDS011;36399;51.444;-2.018;2023-02-22T00:28:46;64.03;;;27.93;;
43435;SDS011;36399;51.444;-2.018;2023-02-22T00:31:13;71.27;;;29.80;;
43435;SDS011;36399;51.444;-2.018;2023-02-22T00:33:40;61.67;;;28.17;;
43435;SDS011;36399;51.444;-2.018;2023-02-22T00:36:06;69.03;;;29.83;;
43435;SDS011;36399;51.444;-2.018;2023-02-22T00:38:33;68.00;;;30.13;;
43435;SDS011;36399;51.444;-2.018;2023-02-22T00:40:59;59.53;;;26.90;;
43435;SDS011;36399;51.444;-2.018;2023-02-22T00:43:25;58.90;;;24.87;;
43435;SDS011;36399;51.444;-2.018;2023-02-22T00:45:51;56.53;;;27.97;;
43435;SDS011;36399;51.444;-2.018;2023-02-22T00:48:18;66.00;;;28.80;;
43435;SDS011;36399;51.444;-2.018;2023-02-22T00:50:46;59.07;;;25.20;;
43435;SDS011;36399;51.444;-2.018;2023-02-22T00:53:13;54.50;;;23.77;;
43435;SDS011;36399;51.444;-2.018;2023-02-22T00:55:40;68.10;;;28.43;;
43435;SDS011;36399;51.444;-2.018;2023-02-22T00:58:06;56.73;;;27.10;;
43435;SDS011;36399;51.444;-2.018;2023-02-22T01:00:37;64.83;;;28.50;;
43435;SDS011;36399;51.444;-2.018;2023-02-22T01:03:07;64.20;;;27.13;;
43435;SDS011;36399;51.444;-2.018;2023-02-22T01:05:35;58.13;;;25.93;;
43435;SDS011;36399;51.444;-2.018;2023-02-22T01:08:03;66.40;;;27.03;;
43435;SDS011;36399;51.444;-2.018;2023-02-22T01:10:31;58.27;;;26.00;;
43435;SDS011;36399;51.444;-2.018;2023-02-22T01:12:58;63.90;;;26.70;;
43435;SDS011;36399;51.444;-2.018;2023-02-22T01:15:26;65.33;;;26.60;;
43435;SDS011;36399;51.444;-2.018;2023-02-22T01:17:55;61.67;;;26.23;;
43435;SDS011;36399;51.444;-2.018;2023-02-22T01:20:22;58.63;;;24.63;;
43435;SDS011;36399;51.444;-2.018;2023-02-22T01:22:51;61.67;;;25.07;;
43435;SDS011;36399;51.444;-2.018;2023-02-22T01:25:20;65.50;;;26.37;;
43435;SDS011;36399;51.444;-2.018;2023-02-22T01:27:48;54.00;;;23.90;;
43435;SDS011;36399;51.444;-2.018;2023-02-22T01:30:19;69.43;;;26.87;;
43435;SDS011;36399;51.444;-2.018;2023-02-22T01:32:47;67.20;;;28.73;;
43435;SDS011;36399;51.444;-2.018;2023-02-22T01:35:16;66.40;;;25.13;;
43435;SDS011;36399;51.444;-2.018;2023-02-22T01:37:44;72.03;;;27.87;;
43435;SDS011;36399;51.444;-2.018;2023-02-22T01:40:15;63.43;;;25.57;;
43435;SDS011;36399;51.444;-2.018;2023-02-22T01:42:46;67.73;;;24.33;;
43435;SDS011;36399;51.444;-2.018;2023-02-22T01:47:55;54.77;;;23.10;;
43435;SDS011;36399;51.444;-2.018;2023-02-22T01:50:25;59.50;;;25.30;;
43435;SDS011;36399;51.444;-2.018;2023-02-22T01:52:51;56.20;;;23.47;;
43435;SDS011;36399;51.444;-2.018;2023-02-22T01:55:17;68.63;;;26.63;;
43435;SDS011;36399;51.444;-2.018;2023-02-22T01:57:44;62.73;;;23.93;;
43435;SDS011;36399;51.444;-2.018;2023-02-22T02:00:13;60.17;;;25.43;;
43435;SDS011;36399;51.444;-2.018;2023-02-22T02:02:43;71.17;;;25.50;;
43435;SDS011;36399;51.444;-2.018;2023-02-22T02:05:13;63.33;;;24.67;;
43435;SDS011;36399;51.444;-2.018;2023-02-22T02:07:41;58.43;;;21.90;;
43435;SDS011;36399;51.444;-2.018;2023-02-22T02:10:12;49.97;;;21.30;;
43435;SDS011;36399;51.444;-2.018;2023-02-22T02:12:41;59.53;;;23.17;;
43435;SDS011;36399;51.444;-2.018;2023-02-22T02:15:22;56.97;;;21.73;;
43435;SDS011;36399;51.444;-2.018;2023-02-22T02:17:50;49.47;;;19.87;;
43435;SDS011;36399;51.444;-2.018;2023-02-22T02:25:55;54.73;;;21.03;;
43435;SDS011;36399;51.444;-2.018;2023-02-22T02:34:49;34.97;;;17.70;;
43435;SDS011;36399;51.444;-2.018;2023-02-22T02:40:45;42.57;;;17.33;;
43435;SDS011;36399;51.444;-2.018;2023-02-22T02:43:24;38.70;;;15.77;;
43435;SDS011;36399;51.444;-2.018;2023-02-22T02:46:02;46.93;;;17.67;;
43435;SDS011;36399;51.444;-2.018;2023-02-22T02:51:00;36.23;;;15.00;;
43435;SDS011;36399;51.444;-2.018;2023-02-22T02:53:35;38.20;;;17.47;;
43435;SDS011;36399;51.444;-2.018;2023-02-22T02:56:05;38.83;;;16.90;;
43435;SDS011;36399;51.444;-2.018;2023-02-22T02:58:32;41.33;;;16.97;;
43435;SDS011;36399;51.444;-2.018;2023-02-22T03:00:59;41.43;;;17.03;;
43435;SDS011;36399;51.444;-2.018;2023-02-22T03:03:46;37.60;;;16.77;;
43435;SDS011;36399;51.444;-2.018;2023-02-22T03:06:36;39.67;;;15.70;;
43435;SDS011;36399;51.444;-2.018;2023-02-22T03:15:02;35.60;;;16.50;;
43435;SDS011;36399;51.444;-2.018;2023-02-22T03:20:42;36.00;;;14.07;;
43435;SDS011;36399;51.444;-2.018;2023-02-22T03:25:57;34.40;;;15.17;;
43435;SDS011;36399;51.444;-2.018;2023-02-22T03:28:27;33.40;;;15.57;;
43435;SDS011;36399;51.444;-2.018;2023-02-22T03:31:06;36.20;;;13.73;;
43435;SDS011;36399;51.444;-2.018;2023-02-22T03:33:42;37.93;;;14.73;;
43435;SDS011;36399;51.444;-2.018;2023-02-22T03:39:14;32.73;;;12.93;;
43435;SDS011;36399;51.444;-2.018;2023-02-22T03:41:46;33.53;;;13.90;;
43435;SDS011;36399;51.444;-2.018;2023-02-22T03:44:17;31.85;;;13.65;;
43435;SDS011;36399;51.444;-2.018;2023-02-22T03:46:47;30.83;;;14.50;;
43435;SDS011;36399;51.444;-2.018;2023-02-22T03:49:28;30.83;;;14.43;;
43435;SDS011;36399;51.444;-2.018;2023-02-22T03:51:56;25.57;;;11.90;;
43435;SDS011;36399;51.444;-2.018;2023-02-22T03:54:23;31.33;;;13.30;;
43435;SDS011;36399;51.444;-2.018;2023-02-22T03:56:53;28.77;;;12.10;;
43435;SDS011;36399;51.444;-2.018;2023-02-22T03:59:23;32.22;;;13.43;;
43435;SDS011;36399;51.444;-2.018;2023-02-22T04:01:52;28.33;;;12.17;;
43435;SDS011;36399;51.444;-2.018;2023-02-22T04:04:19;28.83;;;12.57;;
43435;SDS011;36399;51.444;-2.018;2023-02-22T04:06:46;30.27;;;12.27;;
43435;SDS011;36399;51.444;-2.018;2023-02-22T04:09:16;27.87;;;11.97;;
43435;SDS011;36399;51.444;-2.018;2023-02-22T04:11:42;29.43;;;12.93;;
43435;SDS011;36399;51.444;-2.018;2023-02-22T04:14:08;26.30;;;12.73;;
43435;SDS011;36399;51.444;-2.018;2023-02-22T04:16:34;33.00;;;13.07;;
43435;SDS011;36399;51.444;-2.018;2023-02-22T04:19:00;27.67;;;11.90;;
43435;SDS011;36399;51.444;-2.018;2023-02-22T04:21:26;26.37;;;12.53;;
43435;SDS011;36399;51.444;-2.018;2023-02-22T04:23:52;20.33;;;10.77;;
43435;SDS011;36399;51.444;-2.018;2023-02-22T04:26:18;28.30;;;12.40;;
43435;SDS011;36399;51.444;-2.018;2023-02-22T04:28:44;26.43;;;11.17;;
43435;SDS011;36399;51.444;-2.018;2023-02-22T04:31:10;32.03;;;13.97;;
43435;SDS011;36399;51.444;-2.018;2023-02-22T04:33:36;28.50;;;12.53;;
43435;SDS011;36399;51.444;-2.018;2023-02-22T04:36:02;34.77;;;13.70;;
43435;SDS011;36399;51.444;-2.018;2023-02-22T04:38:28;34.97;;;13.87;;
43435;SDS011;36399;51.444;-2.018;2023-02-22T04:40:54;30.03;;;12.77;;
43435;SDS011;36399;51.444;-2.018;2023-02-22T04:43:20;35.17;;;13.77;;
43435;SDS011;36399;51.444;-2.018;2023-02-22T04:45:46;24.90;;;12.33;;
43435;SDS011;36399;51.444;-2.018;2023-02-22T04:48:12;28.77;;;13.07;;
43435;SDS011;36399;51.444;-2.018;2023-02-22T04:50:38;31.60;;;12.80;;
43435;SDS011;36399;51.444;-2.018;2023-02-22T04:53:05;27.53;;;12.00;;
43435;SDS011;36399;51.444;-2.018;2023-02-22T04:55:31;29.27;;;12.87;;
43435;SDS011;36399;51.444;-2.018;2023-02-22T04:57:57;28.07;;;13.10;;
43435;SDS011;36399;51.444;-2.018;2023-02-22T05:00:23;29.30;;;11.13;;
43435;SDS011;36399;51.444;-2.018;2023-02-22T05:02:49;34.07;;;13.80;;
43435;SDS011;36399;51.444;-2.018;2023-02-22T05:05:19;31.50;;;11.50;;
43435;SDS011;36399;51.444;-2.018;2023-02-22T05:07:46;27.43;;;12.10;;
43435;SDS011;36399;51.444;-2.018;2023-02-22T05:10:13;29.90;;;10.87;;
43435;SDS011;36399;51.444;-2.018;2023-02-22T05:12:39;32.57;;;13.77;;
43435;SDS011;36399;51.444;-2.018;2023-02-22T05:15:07;31.50;;;12.07;;
43435;SDS011;36399;51.444;-2.018;2023-02-22T05:17:34;36.60;;;14.93;;
43435;SDS011;36399;51.444;-2.018;2023-02-22T05:20:01;33.43;;;14.23;;
43435;SDS011;36399;51.444;-2.018;2023-02-22T05:22:28;34.40;;;13.43;;
43435;SDS011;36399;51.444;-2.018;2023-02-22T05:24:55;35.80;;;13.80;;
43435;SDS011;36399;51.444;-2.018;2023-02-22T05:27:21;43.73;;;18.43;;
43435;SDS011;36399;51.444;-2.018;2023-02-22T05:29:47;41.90;;;18.30;;
43435;SDS011;36399;51.444;-2.018;2023-02-22T05:32:13;40.53;;;17.07;;
43435;SDS011;36399;51.444;-2.018;2023-02-22T05:34:39;47.17;;;17.97;;
43435;SDS011;36399;51.444;-2.018;2023-02-22T05:37:05;41.73;;;17.83;;
43435;SDS011;36399;51.444;-2.018;2023-02-22T05:39:32;43.50;;;16.47;;
43435;SDS011;36399;51.444;-2.018;2023-02-22T05:41:58;46.53;;;18.30;;
43435;SDS011;36399;51.444;-2.018;2023-02-22T05:44:24;55.97;;;18.80;;
43435;SDS011;36399;51.444;-2.018;2023-02-22T05:46:50;41.17;;;15.90;;
43435;SDS011;36399;51.444;-2.018;2023-02-22T05:49:16;42.20;;;18.23;;
43435;SDS011;36399;51.444;-2.018;2023-02-22T05:51:42;49.50;;;18.63;;
43435;SDS011;36399;51.444;-2.018;2023-02-22T05:54:08;40.77;;;18.17;;
43435;SDS011;36399;51.444;-2.018;2023-02-22T05:56:34;53.57;;;20.93;;
43435;SDS011;36399;51.444;-2.018;2023-02-22T05:59:01;34.90;;;15.77;;
43435;SDS011;36399;51.444;-2.018;2023-02-22T06:01:27;51.73;;;20.00;;
43435;SDS011;36399;51.444;-2.018;2023-02-22T06:03:53;49.67;;;20.97;;
43435;SDS011;36399;51.444;-2.018;2023-02-22T06:06:19;45.57;;;21.10;;
43435;SDS011;36399;51.444;-2.018;2023-02-22T06:08:46;38.43;;;17.00;;
43435;SDS011;36399;51.444;-2.018;2023-02-22T06:11:12;49.53;;;19.87;;
43435;SDS011;36399;51.444;-2.018;2023-02-22T06:13:38;50.20;;;21.43;;
43435;SDS011;36399;51.444;-2.018;2023-02-22T06:16:04;55.67;;;21.33;;
43435;SDS011;36399;51.444;-2.018;2023-02-22T06:18:33;51.17;;;20.77;;
43435;SDS011;36399;51.444;-2.018;2023-02-22T06:20:59;47.80;;;16.93;;
43435;SDS011;36399;51.444;-2.018;2023-02-22T06:23:25;43.27;;;17.10;;
43435;SDS011;36399;51.444;-2.018;2023-02-22T06:25:51;46.57;;;18.57;;
43435;SDS011;36399;51.444;-2.018;2023-02-22T06:28:17;39.30;;;18.43;;
43435;SDS011;36399;51.444;-2.018;2023-02-22T06:30:44;36.83;;;16.33;;
43435;SDS011;36399;51.444;-2.018;2023-02-22T06:33:10;43.80;;;16.00;;
43435;SDS011;36399;51.444;-2.018;2023-02-22T06:35:36;48.00;;;19.60;;
43435;SDS011;36399;51.444;-2.018;2023-02-22T06:38:02;52.20;;;20.73;;
43435;SDS011;36399;51.444;-2.018;2023-02-22T06:40:28;45.50;;;19.67;;
43435;SDS011;36399;51.444;-2.018;2023-02-22T06:42:55;49.93;;;21.23;;
43435;SDS011;36399;51.444;-2.018;2023-02-22T06:45:22;49.73;;;21.13;;
43435;SDS011;36399;51.444;-2.018;2023-02-22T06:47:48;43.20;;;15.93;;
43435;SDS011;36399;51.444;-2.018;2023-02-22T06:50:24;56.43;;;22.23;;
43435;SDS011;36399;51.444;-2.018;2023-02-22T06:52:53;52.40;;;21.50;;
43435;SDS011;36399;51.444;-2.018;2023-02-22T06:55:22;36.60;;;16.93;;
43435;SDS011;36399;51.444;-2.018;2023-02-22T06:57:50;45.17;;;18.93;;
43435;SDS011;36399;51.444;-2.018;2023-02-22T07:00:17;56.40;;;19.50;;
43435;SDS011;36399;51.444;-2.018;2023-02-22T07:02:45;45.47;;;18.50;;
43435;SDS011;36399;51.444;-2.018;2023-02-22T07:05:12;38.20;;;12.57;;
43435;SDS011;36399;51.444;-2.018;2023-02-22T07:07:40;46.63;;;17.10;;
43435;SDS011;36399;51.444;-2.018;2023-02-22T07:10:07;44.07;;;18.03;;
43435;SDS011;36399;51.444;-2.018;2023-02-22T07:12:40;39.42;;;17.67;;
43435;SDS011;36399;51.444;-2.018;2023-02-22T07:15:06;34.57;;;16.07;;
43435;SDS011;36399;51.444;-2.018;2023-02-22T07:17:31;52.27;;;20.87;;
43435;SDS011;36399;51.444;-2.018;2023-02-22T07:19:57;50.47;;;17.83;;
43435;SDS011;36399;51.444;-2.018;2023-02-22T07:22:23;43.27;;;14.57;;
43435;SDS011;36399;51.444;-2.018;2023-02-22T07:24:49;34.17;;;16.27;;
43435;SDS011;36399;51.444;-2.018;2023-02-22T07:27:15;38.73;;;14.83;;
43435;SDS011;36399;51.444;-2.018;2023-02-22T07:29:42;48.23;;;18.57;;
43435;SDS011;36399;51.444;-2.018;2023-02-22T07:32:09;37.97;;;15.20;;
43435;SDS011;36399;51.444;-2.018;2023-02-22T07:34:35;34.83;;;14.13;;
43435;SDS011;36399;51.444;-2.018;2023-02-22T07:37:04;31.53;;;12.73;;
43435;SDS011;36399;51.444;-2.018;2023-02-22T07:39:30;40.10;;;15.57;;
43435;SDS011;36399;51.444;-2.018;2023-02-22T07:41:56;48.67;;;18.37;;
43435;SDS011;36399;51.444;-2.018;2023-02-22T07:44:22;43.30;;;17.73;;
43435;SDS011;36399;51.444;-2.018;2023-02-22T07:46:48;46.77;;;18.10;;
43435;SDS011;36399;51.444;-2.018;2023-02-22T07:49:15;44.33;;;20.60;;
43435;SDS011;36399;51.444;-2.018;2023-02-22T07:51:41;37.73;;;14.77;;
43435;SDS011;36399;51.444;-2.018;2023-02-22T07:54:07;38.73;;;17.27;;
43435;SDS011;36399;51.444;-2.018;2023-02-22T07:56:33;41.47;;;14.00;;
43435;SDS011;36399;51.444;-2.018;2023-02-22T07:58:59;34.00;;;15.97;;
43435;SDS011;36399;51.444;-2.018;2023-02-22T08:01:25;42.87;;;17.27;;
43435;SDS011;36399;51.444;-2.018;2023-02-22T08:03:52;39.80;;;14.17;;
43435;SDS011;36399;51.444;-2.018;2023-02-22T08:06:18;32.67;;;14.10;;
43435;SDS011;36399;51.444;-2.018;2023-02-22T08:08:45;42.23;;;17.87;;
43435;SDS011;36399;51.444;-2.018;2023-02-22T08:11:11;41.20;;;17.00;;
43435;SDS011;36399;51.444;-2.018;2023-02-22T08:13:37;44.80;;;18.70;;
43435;SDS011;36399;51.444;-2.018;2023-02-22T08:16:04;46.23;;;18.23;;
43435;SDS011;36399;51.444;-2.018;2023-02-22T08:18:30;43.70;;;17.87;;
43435;SDS011;36399;51.444;-2.018;2023-02-22T08:20:55;42.53;;;18.73;;
43435;SDS011;36399;51.444;-2.018;2023-02-22T08:23:23;49.23;;;19.40;;
43435;SDS011;36399;51.444;-2.018;2023-02-22T08:25:50;41.93;;;16.60;;
43435;SDS011;36399;51.444;-2.018;2023-02-22T08:28:17;38.17;;;15.93;;
43435;SDS011;36399;51.444;-2.018;2023-02-22T08:30:46;35.83;;;15.50;;
43435;SDS011;36399;51.444;-2.018;2023-02-22T08:33:13;39.67;;;15.47;;
43435;SDS011;36399;51.444;-2.018;2023-02-22T08:35:41;40.77;;;17.40;;
43435;SDS011;36399;51.444;-2.018;2023-02-22T08:38:13;34.40;;;14.43;;
43435;SDS011;36399;51.444;-2.018;2023-02-22T08:40:41;38.23;;;14.60;;
43435;SDS011;36399;51.444;-2.018;2023-02-22T08:43:07;36.47;;;15.33;;
43435;SDS011;36399;51.444;-2.018;2023-02-22T08:45:33;26.40;;;11.47;;
43435;SDS011;36399;51.444;-2.018;2023-02-22T08:47:59;31.63;;;13.70;;
43435;SDS011;36399;51.444;-2.018;2023-02-22T08:50:26;28.90;;;14.27;;
43435;SDS011;36399;51.444;-2.018;2023-02-22T08:52:58;39.25;;;14.95;;
43435;SDS011;36399;51.444;-2.018;2023-02-22T08:55:27;25.67;;;11.67;;
43435;SDS011;36399;51.444;-2.018;2023-02-22T08:57:57;27.80;;;12.27;;
43435;SDS011;36399;51.444;-2.018;2023-02-22T09:00:24;23.80;;;9.93;;
43435;SDS011;36399;51.444;-2.018;2023-02-22T09:02:51;29.93;;;11.17;;
43435;SDS011;36399;51.444;-2.018;2023-02-22T09:05:17;26.33;;;11.83;;
43435;SDS011;36399;51.444;-2.018;2023-02-22T09:07:43;22.83;;;10.93;;
43435;SDS011;36399;51.444;-2.018;2023-02-22T09:10:10;24.30;;;11.20;;
43435;SDS011;36399;51.444;-2.018;2023-02-22T09:12:40;24.03;;;10.93;;
43435;SDS011;36399;51.444;-2.018;2023-02-22T09:15:06;27.77;;;11.33;;
43435;SDS011;36399;51.444;-2.018;2023-02-22T09:17:32;21.00;;;9.47;;
43435;SDS011;36399;51.444;-2.018;2023-02-22T09:20:03;24.17;;;9.40;;
43435;SDS011;36399;51.444;-2.018;2023-02-22T09:22:30;20.87;;;10.00;;
43435;SDS011;36399;51.444;-2.018;2023-02-22T09:24:56;21.60;;;10.23;;
43435;SDS011;36399;51.444;-2.018;2023-02-22T09:27:22;21.23;;;10.03;;
43435;SDS011;36399;51.444;-2.018;2023-02-22T09:29:48;16.83;;;8.47;;
43435;SDS011;36399;51.444;-2.018;2023-02-22T09:32:14;16.13;;;8.40;;
43435;SDS011;36399;51.444;-2.018;2023-02-22T09:34:42;17.97;;;9.40;;
43435;SDS011;36399;51.444;-2.018;2023-02-22T09:37:10;18.97;;;9.10;;
43435;SDS011;36399;51.444;-2.018;2023-02-22T09:39:43;14.90;;;7.63;;
43435;SDS011;36399;51.444;-2.018;2023-02-22T09:42:11;13.77;;;7.37;;
43435;SDS011;36399;51.444;-2.018;2023-02-22T09:44:47;13.73;;;6.97;;
43435;SDS011;36399;51.444;-2.018;2023-02-22T09:47:22;13.97;;;7.33;;
43435;SDS011;36399;51.444;-2.018;2023-02-22T09:52:27;15.90;;;7.87;;
43435;SDS011;36399;51.444;-2.018;2023-02-22T09:57:38;12.57;;;8.00;;
43435;SDS011;36399;51.444;-2.018;2023-02-22T10:03:02;13.63;;;6.87;;
43435;SDS011;36399;51.444;-2.018;2023-02-22T10:05:41;13.30;;;7.23;;
43435;SDS011;36399;51.444;-2.018;2023-02-22T10:08:12;11.03;;;5.87;;
43435;SDS011;36399;51.444;-2.018;2023-02-22T10:10:41;12.17;;;5.87;;
43435;SDS011;36399;51.444;-2.018;2023-02-22T10:18:44;8.37;;;4.03;;
43435;SDS011;36399;51.444;-2.018;2023-02-22T10:27:06;6.03;;;2.97;;
43435;SDS011;36399;51.444;-2.018;2023-02-22T10:29:39;5.75;;;2.85;;
43435;SDS011;36399;51.444;-2.018;2023-02-22T10:32:14;6.50;;;2.80;;
43435;SDS011;36399;51.444;-2.018;2023-02-22T10:34:45;6.63;;;3.67;;
43435;SDS011;36399;51.444;-2.018;2023-02-22T10:42:38;5.27;;;2.73;;
43435;SDS011;36399;51.444;-2.018;2023-02-22T10:45:20;4.50;;;2.30;;
43435;SDS011;36399;51.444;-2.018;2023-02-22T10:47:50;5.80;;;1.90;;
43435;SDS011;36399;51.444;-2.018;2023-02-22T10:52:56;2.47;;;1.00;;
43435;SDS011;36399;51.444;-2.018;2023-02-22T10:55:23;1.33;;;0.60;;
43435;SDS011;36399;51.444;-2.018;2023-02-22T10:57:58;1.70;;;0.50;;
43435;SDS011;36399;51.444;-2.018;2023-02-22T11:00:34;2.60;;;0.80;;
43435;SDS011;36399;51.444;-2.018;2023-02-22T11:03:20;4.23;;;0.70;;
43435;SDS011;36399;51.444;-2.018;2023-02-22T11:05:49;2.63;;;0.70;;
43435;SDS011;36399;51.444;-2.018;2023-02-22T11:10:55;2.30;;;0.90;;
43435;SDS011;36399;51.444;-2.018;2023-02-22T11:21:34;2.07;;;0.87;;
43435;SDS011;36399;51.444;-2.018;2023-02-22T11:24:05;1.37;;;0.80;;
43435;SDS011;36399;51.444;-2.018;2023-02-22T11:26:39;1.77;;;0.70;;
43435;SDS011;36399;51.444;-2.018;2023-02-22T11:29:10;1.80;;;0.50;;
43435;SDS011;36399;51.444;-2.018;2023-02-22T11:31:50;2.70;;;0.60;;
43435;SDS011;36399;51.444;-2.018;2023-02-22T11:34:31;1.60;;;0.67;;
43435;SDS011;36399;51.444;-2.018;2023-02-22T11:42:44;1.10;;;0.60;;
43435;SDS011;36399;51.444;-2.018;2023-02-22T11:45:16;3.60;;;0.50;;
43435;SDS011;36399;51.444;-2.018;2023-02-22T12:01:18;1.90;;;0.40;;
43435;SDS011;36399;51.444;-2.018;2023-02-22T12:04:03;1.77;;;0.77;;
43435;SDS011;36399;51.444;-2.018;2023-02-22T12:20:35;0.80;;;0.10;;
43435;SDS011;36399;51.444;-2.018;2023-02-22T12:25:51;0.73;;;0.20;;
43435;SDS011;36399;51.444;-2.018;2023-02-22T12:31:02;2.40;;;0.20;;
43435;SDS011;36399;51.444;-2.018;2023-02-22T12:36:04;0.80;;;0.10;;
43435;SDS011;36399;51.444;-2.018;2023-02-22T13:36:52;1.83;;;0.20;;
43435;SDS011;36399;51.444;-2.018;2023-02-22T13:52:56;1.73;;;0.70;;
43435;SDS011;36399;51.444;-2.018;2023-02-22T14:04:31;0.70;;;0.30;;
43435;SDS011;36399;51.444;-2.018;2023-02-22T14:20:16;1.20;;;0.43;;
43435;SDS011;36399;51.444;-2.018;2023-02-22T14:28:34;2.50;;;0.77;;
43435;SDS011;36399;51.444;-2.018;2023-02-22T14:36:53;2.10;;;0.30;;
43435;SDS011;36399;51.444;-2.018;2023-02-22T14:42:05;1.80;;;0.40;;
43435;SDS011;36399;51.444;-2.018;2023-02-22T14:44:42;0.40;;;0.10;;
43435;SDS011;36399;51.444;-2.018;2023-02-22T14:47:18;0.30;;;0.30;;
43435;SDS011;36399;51.444;-2.018;2023-02-22T14:49:55;1.40;;;0.23;;
43435;SDS011;36399;51.444;-2.018;2023-02-22T14:52:27;0.83;;;0.20;;
43435;SDS011;36399;51.444;-2.018;2023-02-22T14:54:59;2.13;;;0.20;;
43435;SDS011;36399;51.444;-2.018;2023-02-22T14:57:50;1.48;;;0.75;;
43435;SDS011;36399;51.444;-2.018;2023-02-22T15:00:42;0.50;;;0.20;;
43435;SDS011;36399;51.444;-2.018;2023-02-22T15:03:18;0.37;;;0.10;;
43435;SDS011;36399;51.444;-2.018;2023-02-22T15:12:13;0.03;;;0.03;;
43435;SDS011;36399;51.444;-2.018;2023-02-22T15:14:48;0.20;;;0.10;;
43435;SDS011;36399;51.444;-2.018;2023-02-22T15:17:18;0.20;;;0.13;;
43435;SDS011;36399;51.444;-2.018;2023-02-22T15:19:47;0.45;;;0.38;;
43435;SDS011;36399;51.444;-2.018;2023-02-22T15:22:21;0.37;;;0.10;;
43435;SDS011;36399;51.444;-2.018;2023-02-22T15:24:58;0.00;;;0.00;;
43435;SDS011;36399;51.444;-2.018;2023-02-22T15:27:29;0.03;;;0.00;;
43435;SDS011;36399;51.444;-2.018;2023-02-22T15:30:05;0.00;;;0.00;;
43435;SDS011;36399;51.444;-2.018;2023-02-22T15:32:48;0.00;;;0.00;;
43435;SDS011;36399;51.444;-2.018;2023-02-22T15:40:31;0.00;;;0.00;;
43435;SDS011;36399;51.444;-2.018;2023-02-22T15:43:01;0.27;;;0.27;;
43435;SDS011;36399;51.444;-2.018;2023-02-22T15:45:33;0.00;;;0.00;;
43435;SDS011;36399;51.444;-2.018;2023-02-22T15:48:00;0.00;;;0.00;;
43435;SDS011;36399;51.444;-2.018;2023-02-22T15:50:28;0.00;;;0.00;;
43435;SDS011;36399;51.444;-2.018;2023-02-22T15:52:57;0.00;;;0.00;;
43435;SDS011;36399;51.444;-2.018;2023-02-22T15:55:31;0.00;;;0.00;;
43435;SDS011;36399;51.444;-2.018;2023-02-22T16:32:14;0.50;;;0.50;;
43435;SDS011;36399;51.444;-2.018;2023-02-22T16:37:20;0.00;;;0.00;;
43435;SDS011;36399;51.444;-2.018;2023-02-22T16:39:48;0.00;;;0.00;;
43435;SDS011;36399;51.444;-2.018;2023-02-22T17:02:15;0.20;;;0.20;;
43435;SDS011;36399;51.444;-2.018;2023-02-22T17:04:42;0.00;;;0.00;;
43435;SDS011;36399;51.444;-2.018;2023-02-22T17:07:20;0.00;;;0.00;;
43435;SDS011;36399;51.444;-2.018;2023-02-22T17:12:47;3.30;;;0.93;;
43435;SDS011;36399;51.444;-2.018;2023-02-22T17:23:30;1.60;;;1.23;;
43435;SDS011;36399;51.444;-2.018;2023-02-22T17:25:56;0.90;;;0.90;;
43435;SDS011;36399;51.444;-2.018;2023-02-22T17:28:25;0.87;;;0.87;;
43435;SDS011;36399;51.444;-2.018;2023-02-22T17:30:52;0.73;;;0.73;;
43435;SDS011;36399;51.444;-2.018;2023-02-22T17:33:23;0.00;;;0.00;;
43435;SDS011;36399;51.444;-2.018;2023-02-22T17:35:53;0.65;;;0.52;;
43435;SDS011;36399;51.444;-2.018;2023-02-22T17:38:22;0.33;;;0.33;;
43435;SDS011;36399;51.444;-2.018;2023-02-22T17:40:50;0.27;;;0.20;;
43435;SDS011;36399;51.444;-2.018;2023-02-22T17:48:28;0.00;;;0.00;;
43435;SDS011;36399;51.444;-2.018;2023-02-22T17:50:54;0.00;;;0.00;;
43435;SDS011;36399;51.444;-2.018;2023-02-22T17:53:20;0.00;;;0.00;;
43435;SDS011;36399;51.444;-2.018;2023-02-22T17:56:12;0.00;;;0.00;;
43435;SDS011;36399;51.444;-2.018;2023-02-22T17:59:08;0.00;;;0.00;;
43435;SDS011;36399;51.444;-2.018;2023-02-22T18:01:35;0.00;;;0.00;;
43435;SDS011;36399;51.444;-2.018;2023-02-22T18:04:04;0.03;;;0.03;;
43435;SDS011;36399;51.444;-2.018;2023-02-22T18:06:30;0.20;;;0.20;;
43435;SDS011;36399;51.444;-2.018;2023-02-22T18:08:57;0.00;;;0.00;;
43435;SDS011;36399;51.444;-2.018;2023-02-22T18:11:26;0.83;;;0.80;;
43435;SDS011;36399;51.444;-2.018;2023-02-22T18:13:53;2.73;;;0.57;;
43435;SDS011;36399;51.444;-2.018;2023-02-22T18:16:23;0.00;;;0.00;;
43435;SDS011;36399;51.444;-2.018;2023-02-22T18:18:50;0.03;;;0.03;;
43435;SDS011;36399;51.444;-2.018;2023-02-22T18:21:16;0.00;;;0.00;;
43435;SDS011;36399;51.444;-2.018;2023-02-22T18:23:45;0.00;;;0.00;;
43435;SDS011;36399;51.444;-2.018;2023-02-22T18:26:15;0.00;;;0.00;;
43435;SDS011;36399;51.444;-2.018;2023-02-22T18:28:44;0.10;;;0.10;;
43435;SDS011;36399;51.444;-2.018;2023-02-22T18:31:14;0.00;;;0.00;;
43435;SDS011;36399;51.444;-2.018;2023-02-22T18:33:42;0.53;;;0.53;;
43435;SDS011;36399;51.444;-2.018;2023-02-22T18:36:10;0.00;;;0.00;;
43435;SDS011;36399;51.444;-2.018;2023-02-22T18:38:37;0.43;;;0.43;;
43435;SDS011;36399;51.444;-2.018;2023-02-22T18:41:08;0.00;;;0.00;;
43435;SDS011;36399;51.444;-2.018;2023-02-22T18:43:36;1.50;;;1.40;;
43435;SDS011;36399;51.444;-2.018;2023-02-22T18:48:46;0.00;;;0.00;;
43435;SDS011;36399;51.444;-2.018;2023-02-22T18:51:13;0.00;;;0.00;;
43435;SDS011;36399;51.444;-2.018;2023-02-22T18:53:41;0.00;;;0.00;;
43435;SDS011;36399;51.444;-2.018;2023-02-22T18:56:10;0.00;;;0.00;;
43435;SDS011;36399;51.444;-2.018;2023-02-22T18:58:37;0.83;;;0.83;;
43435;SDS011;36399;51.444;-2.018;2023-02-22T19:01:04;0.00;;;0.00;;
43435;SDS011;36399;51.444;-2.018;2023-02-22T19:03:33;0.00;;;0.00;;
43435;SDS011;36399;51.444;-2.018;2023-02-22T19:06:02;1.07;;;0.67;;
43435;SDS011;36399;51.444;-2.018;2023-02-22T19:08:36;0.08;;;0.08;;
43435;SDS011;36399;51.444;-2.018;2023-02-22T19:11:06;0.00;;;0.00;;
43435;SDS011;36399;51.444;-2.018;2023-02-22T19:13:35;0.37;;;0.37;;
43435;SDS011;36399;51.444;-2.018;2023-02-22T19:16:03;0.00;;;0.00;;
43435;SDS011;36399;51.444;-2.018;2023-02-22T19:18:32;0.00;;;0.00;;
43435;SDS011;36399;51.444;-2.018;2023-02-22T19:21:01;5.53;;;1.60;;
43435;SDS011;36399;51.444;-2.018;2023-02-22T19:23:33;0.00;;;0.00;;
43435;SDS011;36399;51.444;-2.018;2023-02-22T19:26:13;0.00;;;0.00;;
43435;SDS011;36399;51.444;-2.018;2023-02-22T19:28:44;0.20;;;0.20;;
43435;SDS011;36399;51.444;-2.018;2023-02-22T19:31:15;0.00;;;0.00;;
43435;SDS011;36399;51.444;-2.018;2023-02-22T19:33:58;0.00;;;0.00;;
43435;SDS011;36399;51.444;-2.018;2023-02-22T19:36:33;0.63;;;0.63;;
43435;SDS011;36399;51.444;-2.018;2023-02-22T19:39:11;0.00;;;0.00;;
43435;SDS011;36399;51.444;-2.018;2023-02-22T19:41:38;0.00;;;0.00;;